sensor_id;sensor_type;location;lat;lon;timestamp;pressure;altitude;pressure_sealevel;temperature;humidity
62712;BME280;48772;55.586;37.730;2023-01-28T00:01:51;100032.00;;;-0.47;100.00
62712;BME280;48772;55.586;37.730;2023-01-28T00:04:17;100023.31;;;-0.47;100.00
62712;BME280;48772;55.586;37.730;2023-01-28T00:06:43;100010.38;;;-0.53;100.00
62712;BME280;48772;55.586;37.730;2023-01-28T00:09:09;100026.44;;;-0.36;100.00
62712;BME280;48772;55.586;37.730;2023-01-28T00:11:35;99974.09;;;-0.65;100.00
62712;BME280;48772;55.586;37.730;2023-01-28T00:14:01;99999.91;;;-0.53;100.00
62712;BME280;48772;55.586;37.730;2023-01-28T00:16:29;100018.97;;;-0.50;100.00
62712;BME280;48772;55.586;37.730;2023-01-28T00:18:55;100030.00;;;-0.39;100.00
62712;BME280;48772;55.586;37.730;2023-01-28T00:21:21;99952.03;;;-0.86;100.00
62712;BME280;48772;55.586;37.730;2023-01-28T00:23:52;100010.34;;;-0.52;100.00
62712;BME280;48772;55.586;37.730;2023-01-28T00:26:19;100024.88;;;-0.42;100.00
62712;BME280;48772;55.586;37.730;2023-01-28T00:28:46;99987.34;;;-0.71;100.00
62712;BME280;48772;55.586;37.730;2023-01-28T00:31:21;100013.63;;;-0.45;100.00
62712;BME280;48772;55.586;37.730;2023-01-28T00:33:48;100002.50;;;-0.53;100.00
62712;BME280;48772;55.586;37.730;2023-01-28T00:36:16;99957.06;;;-0.80;100.00
62712;BME280;48772;55.586;37.730;2023-01-28T00:38:42;100007.84;;;-0.56;100.00
62712;BME280;48772;55.586;37.730;2023-01-28T00:41:12;99988.19;;;-0.69;100.00
62712;BME280;48772;55.586;37.730;2023-01-28T00:43:40;100030.94;;;-0.41;100.00
62712;BME280;48772;55.586;37.730;2023-01-28T00:46:08;100025.03;;;-0.48;100.00
62712;BME280;48772;55.586;37.730;2023-01-28T00:48:36;100010.50;;;-0.58;100.00
62712;BME280;48772;55.586;37.730;2023-01-28T00:51:03;99981.53;;;-0.81;100.00
62712;BME280;48772;55.586;37.730;2023-01-28T00:53:29;100018.56;;;-0.64;100.00
62712;BME280;48772;55.586;37.730;2023-01-28T00:55:56;100022.00;;;-0.63;100.00
62712;BME280;48772;55.586;37.730;2023-01-28T00:58:22;100017.81;;;-0.69;100.00
62712;BME280;48772;55.586;37.730;2023-01-28T01:00:49;100031.50;;;-0.59;100.00
62712;BME280;48772;55.586;37.730;2023-01-28T01:03:16;100026.53;;;-0.68;100.00
62712;BME280;48772;55.586;37.730;2023-01-28T01:05:42;100024.00;;;-0.71;100.00
62712;BME280;48772;55.586;37.730;2023-01-28T01:08:08;100048.06;;;-0.59;100.00
62712;BME280;48772;55.586;37.730;2023-01-28T01:10:37;100021.47;;;-0.74;100.00
62712;BME280;48772;55.586;37.730;2023-01-28T01:13:05;99980.47;;;-1.04;100.00
62712;BME280;48772;55.586;37.730;2023-01-28T01:15:31;100032.81;;;-0.74;100.00
62712;BME280;48772;55.586;37.730;2023-01-28T01:17:57;100049.13;;;-0.64;100.00
62712;BME280;48772;55.586;37.730;2023-01-28T01:20:28;100026.78;;;-0.77;100.00
62712;BME280;48772;55.586;37.730;2023-01-28T01:22:55;100041.63;;;-0.76;100.00
62712;BME280;48772;55.586;37.730;2023-01-28T01:25:21;100043.28;;;-0.74;100.00
62712;BME280;48772;55.586;37.730;2023-01-28T01:27:48;100012.31;;;-0.89;100.00
62712;BME280;48772;55.586;37.730;2023-01-28T01:30:14;100041.53;;;-0.73;100.00
62712;BME280;48772;55.586;37.730;2023-01-28T01:32:44;100039.75;;;-0.73;100.00
62712;BME280;48772;55.586;37.730;2023-01-28T01:35:13;100042.41;;;-0.74;100.00
62712;BME280;48772;55.586;37.730;2023-01-28T01:37:42;100043.31;;;-0.75;100.00
62712;BME280;48772;55.586;37.730;2023-01-28T01:40:09;100035.56;;;-0.78;100.00
62712;BME280;48772;55.586;37.730;2023-01-28T01:42:35;100035.75;;;-0.84;100.00
62712;BME280;48772;55.586;37.730;2023-01-28T01:45:12;100023.47;;;-0.82;100.00
62712;BME280;48772;55.586;37.730;2023-01-28T01:50:35;100017.53;;;-0.89;100.00
62712;BME280;48772;55.586;37.730;2023-01-28T01:53:08;100027.91;;;-0.84;100.00
62712;BME280;48772;55.586;37.730;2023-01-28T01:55:35;100027.94;;;-0.86;100.00
62712;BME280;48772;55.586;37.730;2023-01-28T01:58:06;100026.31;;;-0.90;100.00
62712;BME280;48772;55.586;37.730;2023-01-28T02:00:33;100003.00;;;-0.99;100.00
62712;BME280;48772;55.586;37.730;2023-01-28T02:03:00;99989.28;;;-1.07;100.00
62712;BME280;48772;55.586;37.730;2023-01-28T02:05:26;99979.00;;;-1.14;100.00
62712;BME280;48772;55.586;37.730;2023-01-28T02:07:54;100005.63;;;-0.99;100.00
62712;BME280;48772;55.586;37.730;2023-01-28T02:10:43;99962.59;;;-1.19;100.00
62712;BME280;48772;55.586;37.730;2023-01-28T02:13:10;100006.56;;;-1.01;100.00
62712;BME280;48772;55.586;37.730;2023-01-28T02:15:36;99992.00;;;-1.11;100.00
62712;BME280;48772;55.586;37.730;2023-01-28T02:18:02;99953.31;;;-1.31;100.00
62712;BME280;48772;55.586;37.730;2023-01-28T02:26:33;100042.69;;;-0.83;100.00
62712;BME280;48772;55.586;37.730;2023-01-28T02:29:16;100013.59;;;-1.03;100.00
62712;BME280;48772;55.586;37.730;2023-01-28T02:31:52;100040.19;;;-0.88;100.00
62712;BME280;48772;55.586;37.730;2023-01-28T02:34:38;100022.16;;;-0.97;100.00
62712;BME280;48772;55.586;37.730;2023-01-28T02:39:36;100037.66;;;-0.91;100.00
62712;BME280;48772;55.586;37.730;2023-01-28T02:44:59;100040.97;;;-0.84;100.00
62712;BME280;48772;55.586;37.730;2023-01-28T02:47:25;100036.06;;;-0.96;100.00
62712;BME280;48772;55.586;37.730;2023-01-28T02:50:14;100032.81;;;-1.04;100.00
62712;BME280;48772;55.586;37.730;2023-01-28T03:04:03;100062.25;;;-0.96;100.00
62712;BME280;48772;55.586;37.730;2023-01-28T03:06:38;100015.97;;;-1.26;100.00
62712;BME280;48772;55.586;37.730;2023-01-28T03:09:06;100061.47;;;-1.00;100.00
62712;BME280;48772;55.586;37.730;2023-01-28T03:11:57;100060.59;;;-1.00;100.00
62712;BME280;48772;55.586;37.730;2023-01-28T03:14:48;100064.13;;;-1.01;100.00
62712;BME280;48772;55.586;37.730;2023-01-28T03:20:37;100073.66;;;-0.99;100.00
62712;BME280;48772;55.586;37.730;2023-01-28T03:23:30;100036.69;;;-1.17;100.00
62712;BME280;48772;55.586;37.730;2023-01-28T03:26:17;100074.53;;;-0.98;100.00
62712;BME280;48772;55.586;37.730;2023-01-28T03:29:07;100055.69;;;-1.11;100.00
62712;BME280;48772;55.586;37.730;2023-01-28T03:31:54;100070.28;;;-1.02;100.00
62712;BME280;48772;55.586;37.730;2023-01-28T03:34:39;100075.56;;;-1.04;100.00
62712;BME280;48772;55.586;37.730;2023-01-28T03:37:23;100072.97;;;-1.05;100.00
62712;BME280;48772;55.586;37.730;2023-01-28T03:40:05;100064.28;;;-1.07;100.00
62712;BME280;48772;55.586;37.730;2023-01-28T03:42:32;100064.38;;;-1.10;100.00
62712;BME280;48772;55.586;37.730;2023-01-28T03:45:18;100076.50;;;-1.06;100.00
62712;BME280;48772;55.586;37.730;2023-01-28T03:47:46;100060.22;;;-1.17;100.00
62712;BME280;48772;55.586;37.730;2023-01-28T03:50:11;100080.00;;;-1.07;100.00
62712;BME280;48772;55.586;37.730;2023-01-28T03:52:52;100074.81;;;-1.10;100.00
62712;BME280;48772;55.586;37.730;2023-01-28T03:55:26;100075.66;;;-1.08;100.00
62712;BME280;48772;55.586;37.730;2023-01-28T03:57:52;100071.34;;;-1.09;100.00
62712;BME280;48772;55.586;37.730;2023-01-28T04:00:18;100064.56;;;-1.16;100.00
62712;BME280;48772;55.586;37.730;2023-01-28T04:02:47;100042.97;;;-1.24;100.00
62712;BME280;48772;55.586;37.730;2023-01-28T04:05:15;100041.38;;;-1.30;100.00
62712;BME280;48772;55.586;37.730;2023-01-28T04:07:48;100069.59;;;-1.10;100.00
62712;BME280;48772;55.586;37.730;2023-01-28T04:10:27;100061.03;;;-1.15;100.00
62712;BME280;48772;55.586;37.730;2023-01-28T04:12:56;100062.03;;;-1.21;100.00
62712;BME280;48772;55.586;37.730;2023-01-28T04:15:24;100038.84;;;-1.33;100.00
62712;BME280;48772;55.586;37.730;2023-01-28T04:17:50;100049.34;;;-1.34;100.00
62712;BME280;48772;55.586;37.730;2023-01-28T04:20:24;100075.91;;;-1.17;100.00
62712;BME280;48772;55.586;37.730;2023-01-28T04:22:49;100073.38;;;-1.20;100.00
62712;BME280;48772;55.586;37.730;2023-01-28T04:25:15;100022.03;;;-1.56;100.00
62712;BME280;48772;55.586;37.730;2023-01-28T04:27:42;100077.06;;;-1.27;100.00
62712;BME280;48772;55.586;37.730;2023-01-28T04:30:21;100063.31;;;-1.35;100.00
62712;BME280;48772;55.586;37.730;2023-01-28T04:33:00;100076.19;;;-1.28;100.00
62712;BME280;48772;55.586;37.730;2023-01-28T04:35:46;100078.00;;;-1.30;100.00
62712;BME280;48772;55.586;37.730;2023-01-28T04:38:30;100062.53;;;-1.39;100.00
62712;BME280;48772;55.586;37.730;2023-01-28T04:41:04;100038.56;;;-1.56;100.00
62712;BME280;48772;55.586;37.730;2023-01-28T04:43:32;100055.66;;;-1.43;100.00
62712;BME280;48772;55.586;37.730;2023-01-28T04:46:27;100054.91;;;-1.46;100.00
62712;BME280;48772;55.586;37.730;2023-01-28T04:49:00;100038.56;;;-1.56;100.00
62712;BME280;48772;55.586;37.730;2023-01-28T04:51:49;99967.47;;;-2.03;100.00
62712;BME280;48772;55.586;37.730;2023-01-28T04:54:40;100045.59;;;-1.58;100.00
62712;BME280;48772;55.586;37.730;2023-01-28T04:57:06;100088.69;;;-1.39;100.00
62712;BME280;48772;55.586;37.730;2023-01-28T04:59:33;100094.78;;;-1.38;100.00
62712;BME280;48772;55.586;37.730;2023-01-28T05:02:00;100060.34;;;-1.55;100.00
62712;BME280;48772;55.586;37.730;2023-01-28T05:04:26;100070.78;;;-1.55;100.00
62712;BME280;48772;55.586;37.730;2023-01-28T05:06:52;100078.50;;;-1.49;100.00
62712;BME280;48772;55.586;37.730;2023-01-28T05:09:23;100092.28;;;-1.43;100.00
62712;BME280;48772;55.586;37.730;2023-01-28T05:11:50;100069.13;;;-1.58;100.00
62712;BME280;48772;55.586;37.730;2023-01-28T05:14:16;100092.34;;;-1.46;100.00
62712;BME280;48772;55.586;37.730;2023-01-28T05:16:55;100066.53;;;-1.59;100.00
62712;BME280;48772;55.586;37.730;2023-01-28T05:19:21;100082.81;;;-1.48;100.00
62712;BME280;48772;55.586;37.730;2023-01-28T05:21:46;100081.19;;;-1.52;100.00
62712;BME280;48772;55.586;37.730;2023-01-28T05:24:30;100075.25;;;-1.59;100.00
62712;BME280;48772;55.586;37.730;2023-01-28T05:26:56;100094.00;;;-1.43;100.00
62712;BME280;48772;55.586;37.730;2023-01-28T05:29:22;100106.25;;;-1.44;100.00
62712;BME280;48772;55.586;37.730;2023-01-28T05:31:48;100059.94;;;-1.74;100.00
62712;BME280;48772;55.586;37.730;2023-01-28T05:34:14;100094.28;;;-1.54;100.00
62712;BME280;48772;55.586;37.730;2023-01-28T05:36:40;100092.69;;;-1.59;100.00
62712;BME280;48772;55.586;37.730;2023-01-28T05:39:22;100107.97;;;-1.43;100.00
62712;BME280;48772;55.586;37.730;2023-01-28T05:41:48;100036.72;;;-1.86;100.00
62712;BME280;48772;55.586;37.730;2023-01-28T05:44:13;100064.22;;;-1.70;100.00
62712;BME280;48772;55.586;37.730;2023-01-28T05:47:08;100096.91;;;-1.54;100.00
62712;BME280;48772;55.586;37.730;2023-01-28T05:49:53;100088.28;;;-1.57;100.00
62712;BME280;48772;55.586;37.730;2023-01-28T05:52:32;100087.47;;;-1.59;100.00
62712;BME280;48772;55.586;37.730;2023-01-28T05:54:58;100096.94;;;-1.55;100.00
62712;BME280;48772;55.586;37.730;2023-01-28T05:57:24;100115.97;;;-1.50;100.00
62712;BME280;48772;55.586;37.730;2023-01-28T05:59:50;100041.25;;;-1.94;100.00
62712;BME280;48772;55.586;37.730;2023-01-28T06:02:16;100045.47;;;-1.88;100.00
62712;BME280;48772;55.586;37.730;2023-01-28T06:04:45;100098.66;;;-1.54;100.00
62712;BME280;48772;55.586;37.730;2023-01-28T06:07:11;100060.84;;;-1.76;100.00
62712;BME280;48772;55.586;37.730;2023-01-28T06:09:38;100084.91;;;-1.62;100.00
62712;BME280;48772;55.586;37.730;2023-01-28T06:12:05;100107.38;;;-1.54;100.00
62712;BME280;48772;55.586;37.730;2023-01-28T06:14:39;100102.16;;;-1.55;100.00
62712;BME280;48772;55.586;37.730;2023-01-28T06:17:13;100101.38;;;-1.57;100.00
62712;BME280;48772;55.586;37.730;2023-01-28T06:20:00;100091.16;;;-1.68;100.00
62712;BME280;48772;55.586;37.730;2023-01-28T06:22:29;100116.84;;;-1.50;100.00
62712;BME280;48772;55.586;37.730;2023-01-28T06:24:54;100110.38;;;-1.70;100.00
62712;BME280;48772;55.586;37.730;2023-01-28T06:27:20;100118.81;;;-1.59;100.00
62712;BME280;48772;55.586;37.730;2023-01-28T06:29:46;100093.94;;;-1.74;100.00
62712;BME280;48772;55.586;37.730;2023-01-28T06:32:12;100115.34;;;-1.60;100.00
62712;BME280;48772;55.586;37.730;2023-01-28T06:34:40;100079.19;;;-1.78;100.00
62712;BME280;48772;55.586;37.730;2023-01-28T06:37:06;100089.59;;;-1.76;100.00
62712;BME280;48772;55.586;37.730;2023-01-28T06:39:35;100124.03;;;-1.58;100.00
62712;BME280;48772;55.586;37.730;2023-01-28T06:42:01;100127.63;;;-1.62;100.00
62712;BME280;48772;55.586;37.730;2023-01-28T06:44:30;100100.88;;;-1.73;100.00
62712;BME280;48772;55.586;37.730;2023-01-28T06:46:55;100100.97;;;-1.77;100.00
62712;BME280;48772;55.586;37.730;2023-01-28T06:49:21;100124.03;;;-1.58;100.00
62712;BME280;48772;55.586;37.730;2023-01-28T06:51:47;100113.00;;;-1.70;100.00
62712;BME280;48772;55.586;37.730;2023-01-28T06:54:14;100121.81;;;-1.74;100.00
62712;BME280;48772;55.586;37.730;2023-01-28T06:56:40;100121.81;;;-1.74;100.00
62712;BME280;48772;55.586;37.730;2023-01-28T06:59:05;100086.63;;;-1.96;100.00
62712;BME280;48772;55.586;37.730;2023-01-28T07:01:32;100141.66;;;-1.66;100.00
62712;BME280;48772;55.586;37.730;2023-01-28T07:03:57;100146.97;;;-1.70;100.00
62712;BME280;48772;55.586;37.730;2023-01-28T07:06:23;100125.47;;;-1.81;100.00
62712;BME280;48772;55.586;37.730;2023-01-28T07:08:49;100140.22;;;-1.80;100.00
62712;BME280;48772;55.586;37.730;2023-01-28T07:11:15;100103.34;;;-2.05;100.00
62712;BME280;48772;55.586;37.730;2023-01-28T07:13:41;100146.38;;;-1.81;100.00
62712;BME280;48772;55.586;37.730;2023-01-28T07:16:08;100119.72;;;-1.97;100.00
62712;BME280;48772;55.586;37.730;2023-01-28T07:18:34;100095.66;;;-2.11;100.00
62712;BME280;48772;55.586;37.730;2023-01-28T07:21:00;100084.34;;;-2.11;100.00
62712;BME280;48772;55.586;37.730;2023-01-28T07:23:26;100153.13;;;-1.71;100.00
62712;BME280;48772;55.586;37.730;2023-01-28T07:25:51;100144.38;;;-1.70;100.00
62712;BME280;48772;55.586;37.730;2023-01-28T07:28:17;100129.63;;;-1.73;100.00
62712;BME280;48772;55.586;37.730;2023-01-28T07:30:49;100139.03;;;-1.66;100.00
62712;BME280;48772;55.586;37.730;2023-01-28T07:33:15;100111.28;;;-1.71;100.00
62712;BME280;48772;55.586;37.730;2023-01-28T07:35:42;100090.41;;;-1.73;100.00
62712;BME280;48772;55.586;37.730;2023-01-28T07:38:08;100112.72;;;-1.60;100.00
62712;BME280;48772;55.586;37.730;2023-01-28T07:40:34;100123.75;;;-1.47;100.00
62712;BME280;48772;55.586;37.730;2023-01-28T07:43:00;100133.16;;;-1.40;100.00
62712;BME280;48772;55.586;37.730;2023-01-28T07:45:26;100111.59;;;-1.48;100.00
62712;BME280;48772;55.586;37.730;2023-01-28T07:47:59;100072.81;;;-1.66;100.00
62712;BME280;48772;55.586;37.730;2023-01-28T07:50:27;100082.97;;;-1.54;100.00
62712;BME280;48772;55.586;37.730;2023-01-28T07:52:54;100031.44;;;-1.84;100.00
62712;BME280;48772;55.586;37.730;2023-01-28T07:55:20;100138.75;;;-1.19;100.00
62712;BME280;48772;55.586;37.730;2023-01-28T07:57:54;100012.56;;;-1.95;100.00
62712;BME280;48772;55.586;37.730;2023-01-28T08:00:22;100141.22;;;-1.14;100.00
62712;BME280;48772;55.586;37.730;2023-01-28T08:02:58;100148.19;;;-1.13;100.00
62712;BME280;48772;55.586;37.730;2023-01-28T08:05:25;100136.75;;;-1.09;100.00
62712;BME280;48772;55.586;37.730;2023-01-28T08:07:52;100123.00;;;-1.17;100.00
62712;BME280;48772;55.586;37.730;2023-01-28T08:10:18;100086.03;;;-1.37;100.00
62712;BME280;48772;55.586;37.730;2023-01-28T08:12:54;100123.75;;;-1.12;100.00
62712;BME280;48772;55.586;37.730;2023-01-28T08:15:20;100079.09;;;-1.38;100.00
62712;BME280;48772;55.586;37.730;2023-01-28T08:17:46;100074.66;;;-1.36;100.00
62712;BME280;48772;55.586;37.730;2023-01-28T08:20:12;100111.56;;;-1.13;100.00
62712;BME280;48772;55.586;37.730;2023-01-28T08:22:38;100129.63;;;-1.04;100.00
62712;BME280;48772;55.586;37.730;2023-01-28T08:25:04;100119.22;;;-1.07;100.00
62712;BME280;48772;55.586;37.730;2023-01-28T08:27:30;100119.28;;;-1.09;100.00
62712;BME280;48772;55.586;37.730;2023-01-28T08:29:56;100135.59;;;-0.99;100.00
62712;BME280;48772;55.586;37.730;2023-01-28T08:32:22;100109.78;;;-1.13;100.00
62712;BME280;48772;55.586;37.730;2023-01-28T08:34:48;100090.25;;;-1.32;100.00
62712;BME280;48772;55.586;37.730;2023-01-28T08:37:13;100112.41;;;-1.13;100.00
62712;BME280;48772;55.586;37.730;2023-01-28T08:39:39;100125.44;;;-1.11;100.00
62712;BME280;48772;55.586;37.730;2023-01-28T08:42:06;100127.25;;;-1.13;100.00
62712;BME280;48772;55.586;37.730;2023-01-28T08:44:32;100134.41;;;-1.21;100.00
62712;BME280;48772;55.586;37.730;2023-01-28T08:46:58;100131.53;;;-1.09;100.00
62712;BME280;48772;55.586;37.730;2023-01-28T08:49:24;100132.16;;;-1.01;100.00
62712;BME280;48772;55.586;37.730;2023-01-28T08:52:09;100121.13;;;-1.12;100.00
62712;BME280;48772;55.586;37.730;2023-01-28T08:54:36;100131.16;;;-0.96;100.00
62712;BME280;48772;55.586;37.730;2023-01-28T08:57:18;100051.13;;;-1.36;100.00
62712;BME280;48772;55.586;37.730;2023-01-28T08:59:48;100096.56;;;-1.07;100.00
62712;BME280;48772;55.586;37.730;2023-01-28T09:02:47;100129.16;;;-0.86;100.00
62712;BME280;48772;55.586;37.730;2023-01-28T09:06:58;100126.38;;;-0.80;100.00
62712;BME280;48772;55.586;37.730;2023-01-28T09:09:47;100093.66;;;-0.96;100.00
62712;BME280;48772;55.586;37.730;2023-01-28T09:12:23;100127.19;;;-0.78;100.00
62712;BME280;48772;55.586;37.730;2023-01-28T09:14:50;100075.28;;;-0.95;100.00
62712;BME280;48772;55.586;37.730;2023-01-28T09:17:21;100064.81;;;-0.95;100.00
62712;BME280;48772;55.586;37.730;2023-01-28T09:19:47;100097.47;;;-0.77;100.00
62712;BME280;48772;55.586;37.730;2023-01-28T09:22:13;100036.38;;;-1.07;100.00
62712;BME280;48772;55.586;37.730;2023-01-28T09:24:39;100096.50;;;-0.73;100.00
62712;BME280;48772;55.586;37.730;2023-01-28T09:27:08;100048.28;;;-0.95;100.00
62712;BME280;48772;55.586;37.730;2023-01-28T09:29:37;100037.28;;;-1.08;100.00
62712;BME280;48772;55.586;37.730;2023-01-28T09:32:04;100119.25;;;-0.75;100.00
62712;BME280;48772;55.586;37.730;2023-01-28T09:34:32;99957.56;;;-1.57;100.00
62712;BME280;48772;55.586;37.730;2023-01-28T09:36:58;100043.34;;;-1.07;100.00
62712;BME280;48772;55.586;37.730;2023-01-28T09:40:36;100082.72;;;-0.80;100.00
62712;BME280;48772;55.586;37.730;2023-01-28T09:43:42;100013.97;;;-1.17;100.00
62712;BME280;48772;55.586;37.730;2023-01-28T09:46:19;100023.28;;;-1.07;100.00
62712;BME280;48772;55.586;37.730;2023-01-28T09:48:49;100095.09;;;-0.54;100.00
62712;BME280;48772;55.586;37.730;2023-01-28T09:51:35;99983.44;;;-1.16;100.00
62712;BME280;48772;55.586;37.730;2023-01-28T09:54:19;100049.38;;;-0.73;100.00
62712;BME280;48772;55.586;37.730;2023-01-28T09:56:52;100094.84;;;-0.47;100.00
62712;BME280;48772;55.586;37.730;2023-01-28T09:59:21;100018.56;;;-0.94;100.00
62712;BME280;48772;55.586;37.730;2023-01-28T10:02:19;100032.38;;;-0.89;100.00
62712;BME280;48772;55.586;37.730;2023-01-28T10:20:54;100033.63;;;-0.43;100.00
62712;BME280;48772;55.586;37.730;2023-01-28T10:23:54;100038.59;;;-0.34;100.00
62712;BME280;48772;55.586;37.730;2023-01-28T10:26:26;100015.31;;;-0.44;100.00
62712;BME280;48772;55.586;37.730;2023-01-28T10:29:05;99950.34;;;-0.88;100.00
62712;BME280;48772;55.586;37.730;2023-01-28T10:34:44;99991.59;;;-0.67;100.00
62712;BME280;48772;55.586;37.730;2023-01-28T10:37:15;99993.03;;;-0.57;100.00
62712;BME280;48772;55.586;37.730;2023-01-28T10:39:44;100064.97;;;-0.12;100.00
62712;BME280;48772;55.586;37.730;2023-01-28T10:42:31;100048.31;;;-0.10;100.00
62712;BME280;48772;55.586;37.730;2023-01-28T10:45:19;99985.22;;;-0.59;100.00
62712;BME280;48772;55.586;37.730;2023-01-28T10:47:59;100013.44;;;-0.39;100.00
62712;BME280;48772;55.586;37.730;2023-01-28T10:50:29;99986.06;;;-0.57;100.00
62712;BME280;48772;55.586;37.730;2023-01-28T10:53:01;100013.47;;;-0.41;100.00
62712;BME280;48772;55.586;37.730;2023-01-28T10:55:51;100054.50;;;-0.12;100.00
62712;BME280;48772;55.586;37.730;2023-01-28T10:58:26;100046.94;;;-0.21;100.00
62712;BME280;48772;55.586;37.730;2023-01-28T11:00:56;99964.41;;;-0.63;100.00
62712;BME280;48772;55.586;37.730;2023-01-28T11:03:25;100050.91;;;-0.10;100.00
62712;BME280;48772;55.586;37.730;2023-01-28T11:06:03;99948.88;;;-0.68;100.00
62712;BME280;48772;55.586;37.730;2023-01-28T11:08:30;100058.75;;;-0.08;100.00
62712;BME280;48772;55.586;37.730;2023-01-28T11:11:00;100029.59;;;-0.25;100.00
62712;BME280;48772;55.586;37.730;2023-01-28T11:14:27;100046.94;;;-0.21;100.00
62712;BME280;48772;55.586;37.730;2023-01-28T11:17:15;99989.25;;;-0.47;100.00
62712;BME280;48772;55.586;37.730;2023-01-28T11:19:52;99921.63;;;-0.90;100.00
62712;BME280;48772;55.586;37.730;2023-01-28T11:22:23;100035.63;;;-0.23;100.00
62712;BME280;48772;55.586;37.730;2023-01-28T11:24:55;100020.00;;;-0.26;100.00
62712;BME280;48772;55.586;37.730;2023-01-28T11:27:27;99998.84;;;-0.48;100.00
62712;BME280;48772;55.586;37.730;2023-01-28T11:29:59;100007.72;;;-0.52;100.00
62712;BME280;48772;55.586;37.730;2023-01-28T11:33:04;99998.38;;;-0.60;100.00
62712;BME280;48772;55.586;37.730;2023-01-28T11:35:34;99999.53;;;-0.70;100.00
62712;BME280;48772;55.586;37.730;2023-01-28T11:38:17;99973.06;;;-0.89;100.00
62712;BME280;48772;55.586;37.730;2023-01-28T11:40:49;100020.28;;;-0.63;100.00
62712;BME280;48772;55.586;37.730;2023-01-28T11:43:19;99966.28;;;-0.96;100.00
62712;BME280;48772;55.586;37.730;2023-01-28T11:52:08;100012.06;;;-0.81;100.00
62712;BME280;48772;55.586;37.730;2023-01-28T11:58:54;100016.97;;;-0.69;100.00
62712;BME280;48772;55.586;37.730;2023-01-28T12:09:57;99921.63;;;-1.19;100.00
62712;BME280;48772;55.586;37.730;2023-01-28T12:12:50;99998.81;;;-0.75;100.00
62712;BME280;48772;55.586;37.730;2023-01-28T12:23:40;99987.44;;;-0.74;100.00
62712;BME280;48772;55.586;37.730;2023-01-28T12:26:14;99943.94;;;-1.07;100.00
62712;BME280;48772;55.586;37.730;2023-01-28T12:31:41;99957.06;;;-1.09;100.00
62712;BME280;48772;55.586;37.730;2023-01-28T12:39:53;99959.66;;;-1.09;100.00
62712;BME280;48772;55.586;37.730;2023-01-28T12:42:57;99992.72;;;-0.76;100.00
62712;BME280;48772;55.586;37.730;2023-01-28T12:54:35;99985.19;;;-0.86;100.00
62712;BME280;48772;55.586;37.730;2023-01-28T12:57:07;99992.41;;;-0.94;100.00
62712;BME280;48772;55.586;37.730;2023-01-28T13:02:43;99907.63;;;-1.48;100.00
62712;BME280;48772;55.586;37.730;2023-01-28T13:05:16;99980.47;;;-1.04;100.00
62712;BME280;48772;55.586;37.730;2023-01-28T13:08:02;99975.28;;;-1.06;100.00
62712;BME280;48772;55.586;37.730;2023-01-28T13:13:06;99941.03;;;-1.27;100.00
62712;BME280;48772;55.586;37.730;2023-01-28T13:15:40;99917.78;;;-1.38;100.00
62712;BME280;48772;55.586;37.730;2023-01-28T13:26:41;99970.28;;;-1.13;100.00
62712;BME280;48772;55.586;37.730;2023-01-28T13:29:29;99977.19;;;-1.11;100.00
62712;BME280;48772;55.586;37.730;2023-01-28T13:32:03;99942.16;;;-1.36;100.00
62712;BME280;48772;55.586;37.730;2023-01-28T13:34:57;99908.69;;;-1.55;100.00
62712;BME280;48772;55.586;37.730;2023-01-28T13:37:38;99934.50;;;-1.43;100.00
62712;BME280;48772;55.586;37.730;2023-01-28T13:40:23;99894.94;;;-1.62;100.00
62712;BME280;48772;55.586;37.730;2023-01-28T13:43:04;99924.88;;;-1.41;100.00
62712;BME280;48772;55.586;37.730;2023-01-28T13:45:55;99961.44;;;-1.09;100.00
62712;BME280;48772;55.586;37.730;2023-01-28T13:48:34;99935.84;;;-1.29;100.00
62712;BME280;48772;55.586;37.730;2023-01-28T13:51:11;99918.72;;;-1.40;100.00
62712;BME280;48772;55.586;37.730;2023-01-28T13:54:03;99959.91;;;-1.16;100.00
62712;BME280;48772;55.586;37.730;2023-01-28T14:10:43;99951.66;;;-1.33;100.00
62712;BME280;48772;55.586;37.730;2023-01-28T14:18:43;99947.22;;;-1.30;100.00
62712;BME280;48772;55.586;37.730;2023-01-28T14:21:20;99918.78;;;-1.42;100.00
62712;BME280;48772;55.586;37.730;2023-01-28T14:23:49;99879.38;;;-1.66;100.00
62712;BME280;48772;55.586;37.730;2023-01-28T14:32:18;99919.69;;;-1.43;100.00
62712;BME280;48772;55.586;37.730;2023-01-28T14:34:45;99906.03;;;-1.54;100.00
62712;BME280;48772;55.586;37.730;2023-01-28T14:37:13;99896.53;;;-1.56;100.00
62712;BME280;48772;55.586;37.730;2023-01-28T14:39:46;99873.22;;;-1.64;100.00
62712;BME280;48772;55.586;37.730;2023-01-28T14:42:27;99840.03;;;-1.92;100.00
62712;BME280;48772;55.586;37.730;2023-01-28T14:45:06;99911.25;;;-1.52;100.00
62712;BME280;48772;55.586;37.730;2023-01-28T14:47:56;99939.50;;;-1.34;100.00
62712;BME280;48772;55.586;37.730;2023-01-28T14:50:49;99937.88;;;-1.38;100.00
62712;BME280;48772;55.586;37.730;2023-01-28T14:56:13;99900.22;;;-1.63;100.00
62712;BME280;48772;55.586;37.730;2023-01-28T15:01:45;99861.66;;;-1.87;100.00
62712;BME280;48772;55.586;37.730;2023-01-28T15:04:29;99892.44;;;-1.66;100.00
62712;BME280;48772;55.586;37.730;2023-01-28T15:07:01;99849.47;;;-1.87;100.00
62712;BME280;48772;55.586;37.730;2023-01-28T15:09:37;99806.53;;;-2.09;100.00
62712;BME280;48772;55.586;37.730;2023-01-28T15:12:05;99918.72;;;-1.40;100.00
62712;BME280;48772;55.586;37.730;2023-01-28T15:14:35;99871.63;;;-1.69;100.00
62712;BME280;48772;55.586;37.730;2023-01-28T15:17:01;99879.38;;;-1.66;100.00
62712;BME280;48772;55.586;37.730;2023-01-28T15:19:30;99890.41;;;-1.55;100.00
62712;BME280;48772;55.586;37.730;2023-01-28T15:21:59;99898.16;;;-1.52;100.00